createdAt,value
2023-05-05T00:01:34.102Z,5.88
2023-05-05T00:04:01.450Z,6.18
2023-05-05T00:06:28.961Z,5.23
2023-05-05T00:08:56.348Z,5.38
2023-05-05T00:11:23.739Z,5.63
2023-05-05T00:13:51.542Z,5.10
2023-05-05T00:16:18.914Z,5.68
2023-05-05T00:18:46.282Z,5.53
2023-05-05T00:21:13.469Z,5.75
2023-05-05T00:23:40.960Z,6.50
2023-05-05T00:26:11.105Z,5.40
2023-05-05T00:28:39.070Z,5.80
2023-05-05T00:31:08.908Z,5.67
2023-05-05T00:33:36.576Z,5.60
2023-05-05T00:36:04.496Z,5.10
2023-05-05T00:38:31.745Z,5.40
2023-05-05T00:40:59.041Z,5.85
2023-05-05T00:43:27.770Z,5.73
2023-05-05T00:46:01.962Z,6.10
2023-05-05T00:48:30.714Z,6.53
2023-05-05T00:50:58.966Z,5.80
2023-05-05T00:53:27.304Z,7.70
2023-05-05T00:55:54.647Z,7.67
2023-05-05T00:58:22.138Z,6.32
2023-05-05T01:00:50.502Z,6.85
2023-05-05T01:03:17.872Z,6.25
2023-05-05T01:06:06.267Z,7.50
2023-05-05T01:09:05.441Z,6.53
2023-05-05T01:12:01.930Z,7.03
2023-05-05T01:14:43.242Z,7.00
2023-05-05T01:17:24.418Z,7.13
2023-05-05T01:20:20.537Z,6.45
2023-05-05T01:22:53.063Z,6.27
2023-05-05T01:25:43.843Z,7.07
2023-05-05T01:28:29.853Z,6.13
2023-05-05T01:31:08.892Z,6.78
2023-05-05T01:33:52.788Z,6.13
2023-05-05T01:36:31.555Z,5.57
2023-05-05T01:39:04.415Z,5.65
2023-05-05T01:41:45.455Z,5.75
2023-05-05T01:44:15.437Z,5.38
2023-05-05T01:46:42.673Z,5.22
2023-05-05T01:49:11.568Z,3.93
2023-05-05T01:51:41.358Z,4.60
2023-05-05T01:54:09.469Z,5.18
2023-05-05T01:56:40.158Z,4.18
2023-05-05T01:59:09.973Z,4.57
2023-05-05T02:01:41.627Z,4.50
2023-05-05T02:04:09.949Z,4.25
2023-05-05T02:06:39.987Z,4.28
2023-05-05T02:09:11.763Z,4.55
2023-05-05T02:11:40.246Z,4.72
2023-05-05T02:14:09.215Z,4.03
2023-05-05T02:16:41.149Z,3.33
2023-05-05T02:19:09.381Z,3.55
2023-05-05T02:21:37.524Z,3.17
2023-05-05T02:24:07.880Z,3.30
2023-05-05T02:26:39.119Z,3.20
2023-05-05T02:29:10.720Z,3.33
2023-05-05T02:31:45.380Z,3.10
2023-05-05T02:34:18.606Z,2.63
2023-05-05T02:36:47.593Z,2.45
2023-05-05T02:39:27.830Z,2.53
2023-05-05T02:41:58.076Z,2.83
2023-05-05T02:44:29.006Z,1.98
2023-05-05T02:46:58.900Z,2.38
2023-05-05T02:49:26.229Z,2.30
2023-05-05T02:51:58.735Z,2.40
2023-05-05T02:54:32.521Z,2.17
2023-05-05T02:57:01.505Z,2.55
2023-05-05T02:59:37.628Z,2.42
2023-05-05T03:02:26.193Z,2.35
2023-05-05T03:05:06.512Z,2.40
2023-05-05T03:08:09.728Z,2.33
2023-05-05T03:10:47.877Z,2.63
2023-05-05T03:13:18.547Z,2.17
2023-05-05T03:15:49.310Z,2.42
2023-05-05T03:18:21.586Z,2.27
2023-05-05T03:20:55.625Z,2.53
2023-05-05T03:23:23.208Z,2.30
2023-05-05T03:25:55.590Z,2.72
2023-05-05T03:28:43.038Z,2.38
2023-05-05T03:31:18.669Z,2.47
2023-05-05T03:33:50.429Z,2.25
2023-05-05T03:36:20.181Z,2.42
2023-05-05T03:38:47.785Z,2.17
2023-05-05T03:41:15.104Z,2.35
2023-05-05T03:43:42.414Z,2.37
2023-05-05T03:46:10.366Z,2.47
2023-05-05T03:48:37.955Z,2.85
2023-05-05T03:51:05.289Z,2.45
2023-05-05T03:53:34.883Z,3.47
2023-05-05T03:56:05.839Z,3.87
2023-05-05T03:58:33.128Z,3.60
2023-05-05T04:01:00.498Z,4.03
2023-05-05T04:03:27.842Z,3.88
2023-05-05T04:05:55.194Z,4.85
2023-05-05T04:08:22.928Z,4.47
2023-05-05T04:10:50.997Z,4.55
2023-05-05T04:13:18.491Z,4.60
2023-05-05T04:15:46.434Z,5.10
2023-05-05T04:18:14.841Z,5.47
2023-05-05T04:20:42.146Z,5.10
2023-05-05T04:23:10.326Z,5.45
2023-05-05T04:25:37.598Z,5.53
2023-05-05T04:28:05.240Z,5.32
2023-05-05T04:30:32.977Z,5.65
2023-05-05T04:33:00.341Z,5.10
2023-05-05T04:35:27.854Z,5.35
2023-05-05T04:37:55.530Z,6.03
2023-05-05T04:40:23.095Z,5.68
2023-05-05T04:42:50.507Z,6.07
2023-05-05T04:45:17.824Z,5.97
2023-05-05T04:47:45.317Z,5.20
2023-05-05T04:50:13.759Z,5.45
2023-05-05T04:52:41.073Z,5.40
2023-05-05T04:55:09.415Z,5.55
2023-05-05T04:57:36.870Z,4.50
2023-05-05T05:00:05.423Z,5.40
2023-05-05T05:02:33.155Z,5.38
2023-05-05T05:05:00.491Z,4.63
2023-05-05T05:07:27.729Z,5.82
2023-05-05T05:09:55.103Z,5.47
2023-05-05T05:12:22.387Z,5.15
2023-05-05T05:14:51.818Z,6.32
2023-05-05T05:17:20.902Z,6.07
2023-05-05T05:19:48.083Z,6.35
2023-05-05T05:22:15.335Z,7.03
2023-05-05T05:24:44.083Z,6.60
2023-05-05T05:27:12.328Z,6.45
2023-05-05T05:29:43.516Z,6.68
2023-05-05T05:32:11.200Z,7.35
2023-05-05T05:34:38.782Z,7.50
2023-05-05T05:37:08.126Z,7.80
2023-05-05T05:39:35.437Z,8.07
2023-05-05T05:42:03.588Z,7.00
2023-05-05T05:44:31.186Z,6.85
2023-05-05T05:46:59.202Z,7.03
2023-05-05T05:49:27.334Z,6.60
2023-05-05T05:51:56.069Z,7.55
2023-05-05T05:54:23.625Z,6.60
2023-05-05T05:56:51.185Z,6.22
2023-05-05T05:59:18.409Z,6.20
2023-05-05T06:01:46.119Z,6.53
2023-05-05T06:04:13.557Z,6.32
2023-05-05T06:06:41.046Z,6.38
2023-05-05T06:09:08.258Z,6.90
2023-05-05T06:11:36.995Z,6.70
2023-05-05T06:14:04.252Z,6.88
2023-05-05T06:16:31.679Z,6.45
2023-05-05T06:19:02.366Z,6.00
2023-05-05T06:21:30.513Z,6.82
2023-05-05T06:23:57.717Z,6.87
2023-05-05T06:26:24.958Z,6.50
2023-05-05T06:28:52.151Z,6.80
2023-05-05T06:31:19.405Z,5.75
2023-05-05T06:33:46.656Z,7.00
2023-05-05T06:36:14.197Z,6.43
2023-05-05T06:38:41.433Z,6.40
2023-05-05T06:41:08.650Z,6.28
2023-05-05T06:43:35.957Z,5.68
2023-05-05T06:46:07.768Z,5.53
2023-05-05T06:48:34.999Z,4.70
2023-05-05T06:51:03.035Z,4.78
2023-05-05T06:53:30.375Z,5.15
2023-05-05T06:55:57.648Z,3.72
2023-05-05T06:58:25.192Z,3.70
2023-05-05T07:00:52.565Z,4.33
2023-05-05T07:03:19.982Z,4.47
2023-05-05T07:05:47.527Z,5.07
2023-05-05T07:08:14.759Z,4.63
2023-05-05T07:10:42.162Z,3.95
2023-05-05T07:13:09.660Z,4.20
2023-05-05T07:15:36.935Z,4.05
2023-05-05T07:18:04.508Z,3.83
2023-05-05T07:20:31.846Z,4.40
2023-05-05T07:22:59.060Z,4.03
2023-05-05T07:25:26.712Z,3.97
2023-05-05T07:27:54.000Z,3.78
2023-05-05T07:30:21.536Z,3.60
2023-05-05T07:32:49.510Z,4.03
2023-05-05T07:35:16.832Z,3.95
2023-05-05T07:37:47.016Z,3.70
2023-05-05T07:40:14.271Z,3.53
2023-05-05T07:42:41.567Z,3.47
2023-05-05T07:45:09.203Z,3.05
2023-05-05T07:47:36.460Z,3.50
2023-05-05T07:50:04.082Z,3.70
2023-05-05T07:52:45.039Z,2.53
2023-05-05T07:55:15.474Z,2.15
2023-05-05T07:57:42.704Z,2.10
2023-05-05T08:00:10.775Z,1.92
2023-05-05T08:02:41.646Z,1.90
2023-05-05T08:05:09.403Z,1.75
2023-05-05T08:07:40.974Z,2.00
2023-05-05T08:10:10.561Z,1.73
2023-05-05T08:12:38.047Z,2.15
2023-05-05T08:15:06.116Z,2.03
2023-05-05T08:17:48.028Z,1.92
2023-05-05T08:20:16.478Z,1.95
2023-05-05T08:22:43.759Z,2.28
2023-05-05T08:25:12.893Z,2.35
2023-05-05T08:27:42.039Z,2.60
2023-05-05T08:30:10.827Z,2.00
2023-05-05T08:32:41.224Z,2.25
2023-05-05T08:35:09.112Z,2.58
2023-05-05T08:37:36.637Z,2.30
2023-05-05T08:40:04.747Z,2.50
2023-05-05T08:42:37.031Z,2.60
2023-05-05T08:45:07.583Z,2.63
2023-05-05T08:47:39.017Z,2.10
2023-05-05T08:50:07.899Z,2.10
2023-05-05T08:52:45.589Z,1.97
2023-05-05T08:55:25.537Z,1.90
2023-05-05T08:58:02.871Z,2.20
2023-05-05T09:00:31.187Z,2.30
2023-05-05T09:02:59.938Z,2.10
2023-05-05T09:05:27.481Z,1.60
2023-05-05T09:07:54.758Z,1.77
2023-05-05T09:10:22.109Z,1.50
2023-05-05T09:12:51.274Z,1.50
2023-05-05T09:15:18.844Z,2.00
2023-05-05T09:17:47.248Z,1.70
2023-05-05T09:20:15.037Z,1.45
2023-05-05T09:22:43.764Z,1.92
2023-05-05T09:25:16.491Z,1.70
2023-05-05T09:27:46.592Z,2.00
2023-05-05T09:30:18.362Z,1.60
2023-05-05T09:32:51.124Z,1.50
2023-05-05T09:35:20.030Z,1.58
2023-05-05T09:37:47.664Z,1.40
2023-05-05T09:40:16.653Z,1.90
2023-05-05T09:42:44.944Z,1.50
2023-05-05T09:45:18.026Z,1.73
2023-05-05T09:47:46.854Z,1.50
2023-05-05T09:50:24.107Z,1.40
2023-05-05T09:53:02.370Z,1.60
2023-05-05T09:55:31.360Z,1.83
2023-05-05T09:58:20.765Z,1.40
2023-05-05T10:00:48.100Z,1.70
2023-05-05T10:03:16.097Z,1.40
2023-05-05T10:05:51.923Z,1.48
2023-05-05T10:08:21.241Z,1.20
2023-05-05T10:10:53.906Z,1.15
2023-05-05T10:13:23.839Z,1.42
2023-05-05T10:15:56.684Z,1.10
2023-05-05T10:18:26.997Z,1.42
2023-05-05T10:21:02.152Z,1.10
2023-05-05T10:23:40.325Z,1.55
2023-05-05T10:26:11.294Z,1.80
2023-05-05T10:28:45.081Z,1.73
2023-05-05T10:31:39.712Z,1.23
2023-05-05T10:34:10.527Z,1.27
2023-05-05T10:36:38.566Z,1.30
2023-05-05T10:39:09.509Z,1.30
2023-05-05T10:41:37.706Z,1.52
2023-05-05T10:44:05.930Z,1.75
2023-05-05T10:46:33.742Z,1.10
2023-05-05T10:49:34.607Z,1.20
2023-05-05T10:52:26.070Z,1.75
2023-05-05T10:55:05.021Z,1.65
2023-05-05T10:57:35.375Z,1.83
2023-05-05T11:00:03.164Z,2.27
2023-05-05T11:02:31.354Z,2.30
2023-05-05T11:05:13.529Z,2.10
2023-05-05T11:07:42.329Z,1.90
2023-05-05T11:10:12.115Z,2.22
2023-05-05T11:13:01.909Z,2.30
2023-05-05T11:15:29.452Z,1.90
2023-05-05T11:18:04.878Z,2.17
2023-05-05T11:20:37.638Z,2.25
2023-05-05T11:23:05.282Z,2.05
2023-05-05T11:25:36.455Z,2.00
2023-05-05T11:28:08.721Z,2.10
2023-05-05T11:30:57.457Z,1.50
2023-05-05T11:33:30.199Z,1.20
2023-05-05T11:36:06.681Z,1.40
2023-05-05T11:38:59.589Z,1.60
2023-05-05T11:41:33.190Z,2.10
2023-05-05T11:44:14.482Z,1.70
2023-05-05T11:46:54.509Z,2.22
2023-05-05T11:49:28.019Z,1.58
2023-05-05T11:52:05.238Z,1.70
2023-05-05T11:54:34.872Z,1.98
2023-05-05T11:57:07.500Z,2.33
2023-05-05T11:59:39.052Z,2.00
2023-05-05T12:02:06.455Z,2.95
2023-05-05T12:04:33.710Z,2.43
2023-05-05T12:07:01.035Z,2.30
2023-05-05T12:09:28.337Z,2.78
2023-05-05T12:11:57.231Z,3.08
2023-05-05T12:14:25.514Z,3.58
2023-05-05T12:17:01.336Z,3.03
2023-05-05T12:19:32.911Z,4.60
2023-05-05T12:22:01.758Z,5.25
2023-05-05T12:24:32.694Z,5.82
2023-05-05T12:27:10.904Z,2.65
2023-05-05T12:29:38.179Z,5.50
2023-05-05T12:32:05.909Z,4.13
2023-05-05T12:34:33.383Z,6.13
2023-05-05T12:37:01.431Z,4.88
2023-05-05T12:39:38.392Z,6.00
2023-05-05T12:42:06.431Z,6.33
2023-05-05T12:44:37.902Z,5.75
2023-05-05T12:47:05.865Z,5.85
2023-05-05T12:49:45.971Z,5.20
2023-05-05T12:52:14.444Z,4.80
2023-05-05T12:54:58.622Z,5.50
2023-05-05T12:57:26.577Z,5.75
2023-05-05T12:59:53.965Z,5.50
2023-05-05T13:02:21.522Z,6.05
2023-05-05T13:04:53.892Z,4.93
2023-05-05T13:07:22.078Z,4.03
2023-05-05T13:09:51.435Z,4.60
2023-05-05T13:12:19.002Z,4.22
2023-05-05T13:14:46.685Z,3.47
2023-05-05T13:17:14.493Z,5.15
2023-05-05T13:19:48.799Z,4.03
2023-05-05T13:22:16.614Z,5.07
2023-05-05T13:25:07.223Z,4.35
2023-05-05T13:27:34.223Z,4.88
2023-05-05T13:30:01.624Z,3.55
2023-05-05T13:32:28.901Z,5.30
2023-05-05T13:34:56.328Z,4.80
2023-05-05T13:37:24.268Z,5.57
2023-05-05T13:39:51.578Z,5.60
2023-05-05T13:42:18.749Z,3.92
2023-05-05T13:44:46.564Z,5.00
2023-05-05T13:47:14.106Z,4.55
2023-05-05T13:49:42.045Z,4.20
2023-05-05T13:52:09.378Z,6.05
2023-05-05T13:54:36.890Z,3.30
2023-05-05T13:57:04.794Z,5.37
2023-05-05T13:59:32.117Z,3.47
2023-05-05T14:02:00.851Z,4.90
2023-05-05T14:04:28.195Z,5.57
2023-05-05T14:06:56.592Z,3.63
2023-05-05T14:09:23.808Z,5.97
2023-05-05T14:11:51.403Z,5.18
2023-05-05T14:14:19.651Z,5.22
2023-05-05T14:16:49.414Z,4.40
2023-05-05T14:19:17.509Z,4.65
2023-05-05T14:21:44.780Z,4.63
2023-05-05T14:24:12.020Z,4.15
2023-05-05T14:26:39.237Z,4.45
2023-05-05T14:29:06.512Z,3.75
2023-05-05T14:31:33.759Z,4.05
2023-05-05T14:34:01.183Z,3.80
2023-05-05T14:36:28.588Z,3.25
2023-05-05T14:38:55.942Z,4.28
2023-05-05T14:41:23.539Z,3.90
2023-05-05T14:43:50.729Z,3.72
2023-05-05T14:46:18.753Z,4.83
2023-05-05T14:48:47.253Z,5.18
2023-05-05T14:51:15.895Z,4.82
2023-05-05T14:53:43.192Z,4.75
2023-05-05T14:56:10.416Z,5.88
2023-05-05T14:58:37.598Z,4.63
2023-05-05T15:01:05.123Z,6.07
2023-05-05T15:03:32.853Z,5.60
2023-05-05T15:06:00.374Z,4.97
2023-05-05T15:08:27.607Z,4.93
2023-05-05T15:10:54.789Z,4.40
2023-05-05T15:13:22.135Z,3.22
2023-05-05T15:15:50.037Z,3.25
2023-05-05T15:18:17.493Z,3.35
2023-05-05T15:20:44.798Z,2.90
2023-05-05T15:23:12.036Z,3.30
2023-05-05T15:25:39.338Z,3.20
2023-05-05T15:28:06.524Z,3.25
2023-05-05T15:30:33.850Z,3.17
2023-05-05T15:33:01.290Z,3.30
2023-05-05T15:35:28.608Z,2.90
2023-05-05T15:37:55.889Z,2.90
2023-05-05T15:40:23.208Z,3.47
2023-05-05T15:42:50.500Z,3.22
2023-05-05T15:45:17.846Z,2.90
2023-05-05T15:47:45.861Z,2.90
2023-05-05T15:50:13.182Z,3.22
2023-05-05T15:52:40.391Z,3.45
2023-05-05T15:55:08.712Z,3.13
2023-05-05T15:57:38.987Z,2.83
2023-05-05T16:00:07.865Z,3.20
2023-05-05T16:02:35.099Z,2.65
2023-05-05T16:05:02.519Z,3.28
2023-05-05T16:07:29.739Z,3.08
2023-05-05T16:09:57.223Z,3.35
2023-05-05T16:12:24.483Z,3.07
2023-05-05T16:14:51.692Z,3.33
2023-05-05T16:17:20.349Z,3.17
2023-05-05T16:19:48.972Z,3.10
2023-05-05T16:22:16.204Z,3.53
2023-05-05T16:24:44.308Z,3.23
2023-05-05T16:27:11.758Z,3.05
2023-05-05T16:29:39.004Z,3.03
2023-05-05T16:32:06.313Z,3.20
2023-05-05T16:34:33.607Z,3.78
2023-05-05T16:37:01.150Z,3.07
2023-05-05T16:39:28.486Z,3.33
2023-05-05T16:41:55.635Z,3.60
2023-05-05T16:44:22.886Z,3.67
2023-05-05T16:46:50.214Z,3.28
2023-05-05T16:49:18.281Z,3.23
2023-05-05T16:51:45.534Z,4.10
2023-05-05T16:54:12.762Z,4.00
2023-05-05T16:56:39.977Z,4.55
2023-05-05T16:59:07.151Z,4.28
2023-05-05T17:01:34.857Z,4.37
2023-05-05T17:04:02.463Z,4.68
2023-05-05T17:06:33.249Z,4.47
2023-05-05T17:09:00.759Z,4.55
2023-05-05T17:11:28.043Z,4.20
2023-05-05T17:13:55.245Z,4.43
2023-05-05T17:16:22.442Z,5.10
2023-05-05T17:18:49.721Z,4.90
2023-05-05T17:21:16.931Z,5.30
2023-05-05T17:23:44.095Z,4.60
2023-05-05T17:26:11.274Z,4.27
2023-05-05T17:28:38.520Z,4.53
2023-05-05T17:31:05.993Z,4.88
2023-05-05T17:33:33.306Z,4.38
2023-05-05T17:36:00.566Z,5.18
2023-05-05T17:38:27.773Z,4.33
2023-05-05T17:40:55.004Z,5.28
2023-05-05T17:43:22.218Z,4.95
2023-05-05T17:45:49.487Z,4.80
2023-05-05T17:48:16.750Z,5.25
2023-05-05T17:50:43.928Z,4.60
2023-05-05T17:53:11.315Z,5.53
2023-05-05T17:55:38.511Z,4.53
2023-05-05T17:58:05.709Z,4.63
2023-05-05T18:00:32.986Z,5.32
2023-05-05T18:03:01.134Z,5.03
2023-05-05T18:05:28.604Z,4.90
2023-05-05T18:07:55.799Z,5.45
2023-05-05T18:10:23.226Z,5.22
2023-05-05T18:12:50.646Z,4.80
2023-05-05T18:15:17.909Z,5.13
2023-05-05T18:17:45.154Z,5.95
2023-05-05T18:20:12.410Z,5.72
2023-05-05T18:22:39.653Z,5.72
2023-05-05T18:25:08.245Z,5.78
2023-05-05T18:27:36.109Z,5.00
2023-05-05T18:30:04.781Z,5.43
2023-05-05T18:32:32.249Z,6.25
2023-05-05T18:34:59.465Z,6.30
2023-05-05T18:37:27.799Z,5.82
2023-05-05T18:39:55.221Z,6.27
2023-05-05T18:42:22.597Z,5.43
2023-05-05T18:44:49.886Z,5.88
2023-05-05T18:47:17.231Z,6.38
2023-05-05T18:49:45.342Z,6.68
2023-05-05T18:52:13.405Z,6.80
2023-05-05T18:54:40.977Z,6.45
2023-05-05T18:57:08.178Z,5.72
2023-05-05T18:59:35.389Z,7.00
2023-05-05T19:02:02.840Z,7.05
2023-05-05T19:07:31.344Z,6.53
2023-05-05T19:10:01.446Z,6.63
2023-05-05T19:12:28.609Z,6.60
2023-05-05T19:14:55.800Z,5.85
2023-05-05T19:17:23.031Z,6.10
2023-05-05T19:19:50.572Z,6.28
2023-05-05T19:22:17.792Z,5.90
2023-05-05T19:24:45.020Z,5.72
2023-05-05T19:27:15.530Z,6.13
2023-05-05T19:29:44.140Z,5.50
2023-05-05T19:32:11.560Z,5.18
2023-05-05T19:34:38.888Z,6.72
2023-05-05T19:37:06.222Z,6.38
2023-05-05T19:39:33.419Z,5.40
2023-05-05T19:42:00.901Z,5.80
2023-05-05T19:44:28.179Z,5.03
2023-05-05T19:46:55.388Z,5.97
2023-05-05T19:49:22.952Z,5.50
2023-05-05T19:51:51.969Z,6.05
2023-05-05T19:54:19.206Z,5.33
2023-05-05T19:56:46.646Z,5.20
2023-05-05T19:59:13.866Z,5.57
2023-05-05T20:01:41.152Z,4.70
2023-05-05T20:04:08.717Z,5.15
2023-05-05T20:06:37.329Z,5.43
2023-05-05T20:09:05.376Z,5.30
2023-05-05T20:11:32.674Z,5.07
2023-05-05T20:14:00.051Z,5.93
2023-05-05T20:16:27.366Z,5.45
2023-05-05T20:18:54.646Z,4.73
2023-05-05T20:21:21.834Z,2.97
2023-05-05T20:23:49.079Z,3.08
2023-05-05T20:26:16.940Z,2.78
2023-05-05T20:28:45.745Z,4.30
2023-05-05T20:31:14.395Z,4.30
2023-05-05T20:33:41.847Z,3.83
2023-05-05T20:36:09.385Z,3.95
2023-05-05T20:38:36.638Z,3.97
2023-05-05T20:41:03.840Z,4.97
2023-05-05T20:43:31.275Z,4.00
2023-05-05T20:45:58.633Z,4.65
2023-05-05T20:48:25.938Z,5.60
2023-05-05T20:50:53.186Z,4.35
2023-05-05T20:53:21.283Z,3.55
2023-05-05T20:55:49.772Z,3.17
2023-05-05T20:58:17.106Z,4.50
2023-05-05T21:00:44.438Z,3.00
2023-05-05T21:03:12.119Z,4.00
2023-05-05T21:05:41.136Z,3.38
2023-05-05T21:08:08.449Z,4.17
2023-05-05T21:10:36.219Z,4.18
2023-05-05T21:13:03.994Z,2.90
2023-05-05T21:15:31.942Z,3.33
2023-05-05T21:17:59.299Z,3.88
2023-05-05T21:20:26.656Z,3.97
2023-05-05T21:22:53.852Z,3.47
2023-05-05T21:25:21.706Z,2.88
2023-05-05T21:27:49.553Z,2.67
2023-05-05T21:30:17.316Z,3.65
2023-05-05T21:32:44.886Z,3.90
2023-05-05T21:35:12.308Z,3.60
2023-05-05T21:37:40.106Z,3.58
2023-05-05T21:40:13.645Z,4.50
2023-05-05T21:42:42.381Z,4.15
2023-05-05T21:45:11.618Z,3.83
2023-05-05T21:47:39.134Z,3.03
2023-05-05T21:50:07.279Z,4.35
2023-05-05T21:52:34.714Z,4.85
2023-05-05T21:55:02.111Z,4.95
2023-05-05T21:57:29.380Z,8.67
2023-05-05T21:59:56.584Z,7.10
2023-05-05T22:02:23.902Z,9.13
2023-05-05T22:04:51.751Z,6.78
2023-05-05T22:07:19.155Z,6.57
2023-05-05T22:09:46.489Z,10.63
2023-05-05T22:12:13.782Z,8.35
2023-05-05T22:14:40.955Z,6.00
2023-05-05T22:17:08.204Z,8.20
2023-05-05T22:19:36.350Z,5.20
2023-05-05T22:22:03.588Z,4.73
2023-05-05T22:24:31.016Z,4.88
2023-05-05T22:26:58.440Z,4.97
2023-05-05T22:29:25.704Z,5.20
2023-05-05T22:31:53.265Z,5.20
2023-05-05T22:34:21.768Z,5.17
2023-05-05T22:36:49.538Z,5.25
2023-05-05T22:39:18.396Z,5.95
2023-05-05T22:41:46.085Z,5.72
2023-05-05T22:44:13.355Z,5.20
2023-05-05T22:46:40.921Z,6.23
2023-05-05T22:49:08.802Z,6.20
2023-05-05T22:51:36.147Z,6.93
2023-05-05T22:54:03.601Z,6.45
2023-05-05T22:56:30.866Z,7.60
2023-05-05T22:58:58.127Z,6.60
2023-05-05T23:01:25.824Z,6.07
2023-05-05T23:03:53.268Z,6.78
2023-05-05T23:06:20.839Z,6.93
2023-05-05T23:08:49.167Z,7.10
2023-05-05T23:11:16.786Z,7.87
2023-05-05T23:13:44.092Z,8.73
2023-05-05T23:16:11.819Z,7.95
2023-05-05T23:18:39.168Z,8.98
2023-05-05T23:21:06.518Z,8.77
2023-05-05T23:23:33.811Z,8.57
2023-05-05T23:26:01.289Z,8.32
2023-05-05T23:28:28.584Z,7.65
2023-05-05T23:30:55.945Z,7.38
2023-05-05T23:33:23.348Z,6.50
2023-05-05T23:35:50.895Z,5.10
2023-05-05T23:38:18.271Z,6.22
2023-05-05T23:40:45.557Z,7.32
2023-05-05T23:43:12.867Z,6.35
2023-05-05T23:45:40.405Z,6.68
2023-05-05T23:48:07.713Z,6.77
2023-05-05T23:50:35.007Z,7.40
2023-05-05T23:53:02.289Z,8.23
2023-05-05T23:55:30.053Z,7.50
2023-05-05T23:57:57.371Z,8.25
